Date,TemperatureHighF,TemperatureAvgF,TemperatureLowF,DewpointHighF,DewpointAvgF,DewpointLowF,HumidityHigh,HumidityAvg,HumidityLow,PressureMaxIn,PressureMinIn,WindSpeedMaxMPH,WindSpeedAvgMPH,GustSpeedMaxMPH,PrecipitationSumIn
2012-12-1,57.6,51.7,45.2,49.9,45.6,41.1,91,80,64,30.38,30.30,15,1,15,0.00
2012-12-2,60.1,54.6,48.3,53.9,49.8,44.0,89,84,66,30.38,30.25,9,1,9,0.00
2012-12-3,59.7,58.1,57.0,57.7,56.0,53.1,95,93,86,30.29,30.22,5,0,5,0.00
2012-12-4,59.3,59.3,59.3,57.3,57.3,57.3,93,93,93,30.33,30.20,0,0,0,0.00
2012-12-5,59.3,58.6,54.2,57.3,55.7,44.3,93,90,69,30.21,30.07,19,1,19,0.00
2012-12-6,55.4,50.9,48.5,46.5,43.6,41.0,87,76,59,30.24,30.15,23,10,23,0.00
2012-12-7,64.5,57.6,48.6,60.5,54.9,44.5,92,90,84,30.15,29.96,17,7,17,0.05
2012-12-8,62.3,62.3,62.3,60.0,60.0,60.0,92,92,92,30.06,29.92,6,6,6,0.00
2012-12-9,62.3,62.3,62.3,60.0,60.0,60.0,92,92,92,30.16,30.01,6,6,6,0.00
2012-12-10,62.3,62.3,62.3,60.0,60.0,60.0,92,92,92,30.03,29.77,6,6,6,0.00
2012-12-11,62.3,62.3,62.3,60.0,60.0,60.0,92,92,92,30.08,29.76,6,6,6,0.00
2012-12-12,62.3,54.6,0.0,60.0,52.6,0.0,94,88,92,30.19,30.07,29,9,29,0.37
2012-12-13,52.4,49.1,45.8,48.7,46.3,43.3,95,90,84,30.24,30.07,28,12,32,0.46
2012-12-14,57.2,49.0,43.4,48.6,44.2,41.5,95,84,59,30.30,30.19,15,5,15,0.00
2012-12-15,59.4,52.1,46.6,54.0,47.4,43.6,94,84,73,30.22,30.06,14,5,14,0.00
2012-12-16,61.2,58.6,57.0,60.6,57.5,53.9,98,96,89,30.07,29.88,17,3,17,0.12
2012-12-17,61.7,59.2,57.7,60.5,58.3,56.9,98,97,94,29.88,29.62,31,7,32,0.34
2012-12-18,62.7,57.6,50.1,58.3,52.8,39.3,96,84,60,29.89,29.64,25,11,25,0.00
2012-12-19,58.2,53.0,45.7,52.1,44.5,36.6,86,73,53,30.10,29.87,18,6,18,0.00
2012-12-20,64.8,57.3,49.6,60.3,52.5,45.6,89,84,72,30.14,29.56,34,9,37,0.02
2012-12-21,65.4,64.2,63.1,62.6,61.3,60.3,94,90,84,29.58,29.42,44,28,44,0.30
2012-12-22,48.8,42.9,37.3,31.4,26.6,23.4,65,53,39,30.06,29.76,19,12,32,0.00
2012-12-23,54.9,46.8,36.8,47.3,31.5,19.9,76,56,33,30.14,30.02,27,8,27,0.04
2012-12-24,57.6,54.0,49.7,51.5,46.2,34.9,86,75,56,30.05,29.88,24,6,24,0.01
2012-12-25,56.2,52.4,49.4,51.1,47.8,45.3,91,84,75,30.07,29.91,17,6,17,0.00
2012-12-26,64.1,56.4,49.5,60.7,53.5,46.6,96,90,83,30.04,29.44,57,14,57,1.22
2012-12-27,50.5,46.1,41.7,45.1,36.0,33.3,82,68,55,30.01,29.58,21,11,31,0.00
2012-12-28,47.5,42.0,35.5,38.4,34.0,30.5,83,73,60,30.15,29.98,6,2,11,0.00
2012-12-29,54.9,49.5,44.9,53.5,45.5,36.5,96,86,72,29.98,29.55,30,9,30,0.89
2012-12-30,47.1,42.0,37.1,37.0,28.2,23.0,73,59,39,30.35,29.84,22,8,27,0.00
2012-12-31,53.9,44.9,34.3,49.7,35.0,24.2,87,68,52,30.35,30.11,28,10,28,0.00